Time;durP1;ratioP1;P1;durP2;ratioP2;P2;SDS_P1;SDS_P2;PMS_P1;PMS_P2;Temp;Humidity;BMP_temperature;BMP_pressure;BME280_temperature;BME280_humidity;BME280_pressure;Samples;Min_cycle;Max_cycle;Signal;HPM_P1;HPM_P2
2021/06/03 00:00:54;;;;;;;39.75;17.27;;;;;;;18.17;68.64;100736.03;4384287;32;20466;-71
2021/06/03 00:03:20;;;;;;;40.70;16.67;;;;;;;18.11;69.72;100733.09;4397330;32;20102;-71
2021/06/03 00:05:49;;;;;;;41.10;17.05;;;;;;;18.05;69.26;100731.41;4389340;32;20074;-71
2021/06/03 00:08:18;;;;;;;39.58;17.87;;;;;;;17.89;69.38;100736.31;4395342;32;20435;-72
2021/06/03 00:10:50;;;;;;;36.90;15.95;;;;;;;17.91;67.92;100732.97;4395409;32;20059;-71
2021/06/03 00:13:17;;;;;;;46.17;18.60;;;;;;;17.98;67.95;100731.81;4382235;32;20077;-72
2021/06/03 00:15:43;;;;;;;40.78;19.02;;;;;;;17.91;69.16;100737.88;4392170;32;20089;-71
2021/06/03 00:18:09;;;;;;;40.15;17.70;;;;;;;17.92;69.43;100719.53;4394837;32;20106;-71
2021/06/03 00:20:35;;;;;;;38.63;17.50;;;;;;;17.97;68.80;100733.84;4388761;32;20109;-70
2021/06/03 00:23:02;;;;;;;40.65;17.67;;;;;;;17.89;68.30;100739.16;4394616;32;20103;-71
2021/06/03 00:25:28;;;;;;;41.20;17.73;;;;;;;17.84;69.53;100739.84;4382963;32;20076;-73
2021/06/03 00:27:55;;;;;;;41.63;17.35;;;;;;;17.88;68.24;100740.44;4395330;32;20437;-71
2021/06/03 00:30:22;;;;;;;34.42;17.75;;;;;;;17.81;68.42;100732.28;4398001;32;20057;-71
2021/06/03 00:32:49;;;;;;;32.75;16.90;;;;;;;17.82;68.69;100730.19;4396267;32;20119;-71
2021/06/03 00:35:15;;;;;;;44.88;18.98;;;;;;;17.84;67.81;100737.00;4393685;32;20039;-72
2021/06/03 00:37:42;;;;;;;40.45;18.48;;;;;;;17.80;68.84;100733.53;4394948;32;20047;-71
2021/06/03 00:40:10;;;;;;;37.58;17.15;;;;;;;17.82;68.14;100731.00;4391259;32;20442;-71
2021/06/03 00:42:36;;;;;;;30.10;16.12;;;;;;;17.80;68.05;100727.84;4395965;32;20050;-73
2021/06/03 00:45:04;;;;;;;37.17;17.17;;;;;;;17.83;68.00;100738.25;4386395;32;20035;-71
2021/06/03 00:47:30;;;;;;;38.00;17.10;;;;;;;17.88;67.65;100737.59;4395280;32;20111;-71
2021/06/03 00:49:56;;;;;;;29.90;15.93;;;;;;;17.79;67.59;100729.13;4395869;32;20077;-71
2021/06/03 00:52:22;;;;;;;30.42;14.70;;;;;;;17.65;66.97;100721.34;4394864;32;20080;-71
2021/06/03 00:54:49;;;;;;;34.70;16.83;;;;;;;17.68;67.69;100733.81;4387741;32;20108;-71
2021/06/03 00:57:15;;;;;;;32.97;15.32;;;;;;;17.68;68.45;100723.22;4389486;32;20115;-72
2021/06/03 00:59:42;;;;;;;37.10;15.35;;;;;;;17.47;68.23;100727.19;4384638;32;20402;-71
2021/06/03 01:02:08;;;;;;;39.20;16.10;;;;;;;17.58;67.79;100733.09;4395420;32;20420;-71
2021/06/03 01:04:34;;;;;;;35.05;15.07;;;;;;;17.49;67.53;100721.78;4395375;32;20097;-73
2021/06/03 01:07:00;;;;;;;32.53;15.43;;;;;;;17.59;67.44;100722.50;4393358;32;20492;-71
2021/06/03 01:09:29;;;;;;;32.55;15.10;;;;;;;17.27;67.93;100726.19;4394367;32;20035;-71
2021/06/03 01:14:51;;;;;;;35.83;15.95;;;;;;;17.43;68.53;100728.66;4450088;31;692682;-72
2021/06/03 01:17:19;;;;;;;36.28;16.33;;;;;;;17.41;68.59;100737.66;4456154;32;20082;-72
2021/06/03 01:19:45;;;;;;;31.20;14.57;;;;;;;17.44;67.94;100744.44;4456463;32;20045;-72
2021/06/03 01:22:15;;;;;;;32.80;14.13;;;;;;;17.39;67.97;100736.53;4448771;32;20392;-72
2021/06/03 01:24:45;;;;;;;35.70;15.32;;;;;;;17.44;67.66;100736.72;4448886;32;20061;-72
2021/06/03 01:27:15;;;;;;;32.80;14.87;;;;;;;17.55;67.02;100734.06;4445783;32;20048;-73
2021/06/03 01:32:18;;;;;;;32.83;16.48;;;;;;;18.01;66.49;100736.53;4431548;31;1373089;-72
2021/06/03 01:34:45;;;;;;;43.35;17.52;;;;;;;18.01;66.49;100736.53;4457493;32;20061;-72
2021/06/03 01:37:11;;;;;;;40.63;17.55;;;;;;;17.62;67.09;100730.09;4458237;32;20114;-72
2021/06/03 01:39:37;;;;;;;36.25;16.85;;;;;;;17.57;66.99;100731.53;4454936;32;20113;-72
2021/06/03 01:42:05;;;;;;;37.10;17.62;;;;;;;17.55;66.86;100728.37;4459592;32;20073;-72
2021/06/03 01:44:33;;;;;;;40.75;17.15;;;;;;;17.46;67.07;100727.69;4460251;32;20503;-72
2021/06/03 01:47:00;;;;;;;45.45;17.12;;;;;;;17.51;66.61;100729.84;4458882;32;20078;-72
2021/06/03 01:49:25;;;;;;;35.97;17.12;;;;;;;17.35;66.63;100722.53;4461430;32;20161;-72
2021/06/03 01:51:52;;;;;;;34.75;15.70;;;;;;;17.36;67.04;100712.72;4448971;32;20080;-72
2021/06/03 01:54:19;;;;;;;34.17;16.90;;;;;;;17.35;66.88;100725.37;4466052;32;20048;-72
2021/06/03 01:56:46;;;;;;;44.25;17.83;;;;;;;17.27;66.93;100718.47;4461450;32;20112;-72
2021/06/03 01:59:11;;;;;;;43.85;17.58;;;;;;;17.24;67.00;100724.31;4465545;32;20067;-72
2021/06/03 02:01:37;;;;;;;46.28;18.15;;;;;;;17.17;67.77;100716.16;4449507;32;20057;-72
2021/06/03 02:04:03;;;;;;;40.47;16.92;;;;;;;17.28;67.16;100722.09;4455335;32;20085;-72
2021/06/03 02:06:29;;;;;;;44.13;17.75;;;;;;;17.26;67.29;100727.47;4453213;32;20105;-72
2021/06/03 02:08:54;;;;;;;35.05;17.23;;;;;;;17.34;67.09;100718.09;4454662;32;20037;-72
2021/06/03 02:11:21;;;;;;;41.35;18.20;;;;;;;17.37;66.63;100730.56;4447524;32;20086;-72
2021/06/03 02:13:52;;;;;;;43.42;17.33;;;;;;;17.37;66.97;100734.19;4451730;32;20057;-72
2021/06/03 02:19:03;;;;;;;41.95;17.92;;;;;;;17.67;66.29;100738.72;4442719;31;691107;-72
2021/06/03 02:21:32;;;;;;;37.67;20.00;;;;;;;17.67;66.29;100738.72;4440710;32;21185;-71
2021/06/03 02:23:59;;;;;;;40.50;19.08;;;;;;;17.10;67.54;100736.44;4441614;32;20068;-71
2021/06/03 02:26:25;;;;;;;40.08;19.12;;;;;;;17.03;67.87;100726.19;4440721;32;20461;-71
2021/06/03 02:28:53;;;;;;;33.55;17.73;;;;;;;16.88;68.07;100724.56;4451478;32;20089;-71
2021/06/03 02:31:19;;;;;;;46.42;19.17;;;;;;;16.97;67.79;100739.50;4452711;32;20078;-71
2021/06/03 02:33:46;;;;;;;39.90;18.58;;;;;;;16.98;67.79;100732.56;4453425;32;20394;-71
2021/06/03 02:36:13;;;;;;;38.28;16.67;;;;;;;17.09;67.88;100732.81;4455398;32;20049;-71
2021/06/03 02:38:41;;;;;;;34.20;16.70;;;;;;;17.08;67.41;100733.28;4455457;32;20416;-71
2021/06/03 02:41:08;;;;;;;32.50;18.30;;;;;;;17.04;68.06;100735.53;4449082;32;20045;-71
2021/06/03 02:43:36;;;;;;;45.25;18.73;;;;;;;17.09;67.76;100744.19;4450783;32;20045;-71
2021/06/03 02:46:03;;;;;;;38.88;18.00;;;;;;;17.10;66.63;100745.78;4456587;32;20425;-71
2021/06/03 02:48:29;;;;;;;37.85;17.90;;;;;;;17.06;66.57;100753.66;4455615;32;20057;-71
2021/06/03 02:50:56;;;;;;;53.03;20.15;;;;;;;17.10;67.02;100742.94;4446848;32;20041;-71
2021/06/03 02:53:21;;;;;;;35.33;18.20;;;;;;;17.14;67.23;100749.22;4448275;32;20508;-71
2021/06/03 02:55:48;;;;;;;37.97;19.58;;;;;;;17.05;66.67;100743.56;4440249;32;20084;-71
2021/06/03 02:58:14;;;;;;;47.47;21.33;;;;;;;17.17;67.03;100744.59;4456285;32;20092;-71
2021/06/03 03:00:40;;;;;;;41.97;20.92;;;;;;;17.10;66.41;100742.13;4450240;32;20071;-71
2021/06/03 03:03:08;;;;;;;34.72;19.67;;;;;;;17.10;66.44;100730.75;4437586;32;20065;-71
2021/06/03 03:05:36;;;;;;;45.58;21.70;;;;;;;17.15;66.33;100738.63;4435859;32;20041;-71
2021/06/03 03:08:03;;;;;;;46.83;21.15;;;;;;;17.05;66.50;100729.38;4439884;32;20464;-71
2021/06/03 03:10:33;;;;;;;49.95;20.23;;;;;;;17.09;66.33;100726.34;4438815;32;20068;-71
2021/06/03 03:12:59;;;;;;;33.83;17.67;;;;;;;17.21;66.23;100725.31;4429998;32;20053;-71
2021/06/03 03:15:26;;;;;;;41.03;18.92;;;;;;;17.07;66.91;100717.50;4438587;32;20061;-71
2021/06/03 03:17:52;;;;;;;44.20;19.48;;;;;;;17.06;66.55;100724.47;4438595;32;20115;-71
2021/06/03 03:20:19;;;;;;;48.63;19.67;;;;;;;17.13;66.34;100721.25;4437381;32;20044;-72
2021/06/03 03:22:48;;;;;;;46.75;21.62;;;;;;;17.04;66.77;100721.31;4440348;32;20084;-72
2021/06/03 03:25:15;;;;;;;40.50;20.88;;;;;;;17.00;66.36;100718.63;4440407;32;20067;-72
2021/06/03 03:27:43;;;;;;;39.20;20.08;;;;;;;17.08;66.24;100727.59;4440236;32;20457;-72
2021/06/03 03:30:10;;;;;;;43.28;22.08;;;;;;;17.02;66.77;100724.63;4429105;32;20156;-72
2021/06/03 03:32:37;;;;;;;42.28;21.87;;;;;;;17.04;66.52;100727.00;4430175;32;20089;-72
2021/06/03 03:35:05;;;;;;;50.12;23.08;;;;;;;16.96;66.76;100728.63;4429727;32;20084;-72
2021/06/03 03:37:31;;;;;;;42.90;23.73;;;;;;;17.09;66.31;100726.34;4429618;32;20073;-72
2021/06/03 03:39:57;;;;;;;46.22;24.67;;;;;;;17.08;66.48;100722.72;4427939;32;20666;-72
2021/06/03 03:42:23;;;;;;;57.22;23.83;;;;;;;17.07;66.32;100724.00;4429022;32;20518;-72
2021/06/03 03:44:50;;;;;;;58.08;24.67;;;;;;;16.98;66.67;100740.31;4429852;32;20046;-72
2021/06/03 03:47:16;;;;;;;47.40;24.77;;;;;;;16.98;66.92;100726.88;4428057;32;20076;-72
2021/06/03 03:49:42;;;;;;;46.08;24.73;;;;;;;16.97;67.09;100728.13;4427627;32;20114;-72
2021/06/03 03:52:09;;;;;;;42.90;23.20;;;;;;;16.99;66.84;100733.34;4429561;32;20107;-72
2021/06/03 03:54:34;;;;;;;45.65;23.65;;;;;;;16.91;67.00;100743.50;4428753;32;20130;-72
2021/06/03 03:57:00;;;;;;;51.22;23.65;;;;;;;16.85;67.26;100734.88;4428774;32;20437;-72
2021/06/03 03:59:26;;;;;;;43.90;21.90;;;;;;;16.96;67.51;100743.62;4429523;32;20439;-72
2021/06/03 04:01:54;;;;;;;49.70;22.20;;;;;;;17.00;67.21;100747.06;4429876;32;20080;-72
2021/06/03 04:04:20;;;;;;;49.67;21.52;;;;;;;17.19;66.71;100739.22;4429785;32;20046;-72
2021/06/03 04:06:47;;;;;;;45.97;21.02;;;;;;;17.22;66.54;100750.44;4427224;32;20045;-72
2021/06/03 04:09:13;;;;;;;47.90;21.75;;;;;;;17.30;66.32;100751.63;4428341;32;20053;-72
2021/06/03 04:11:38;;;;;;;42.62;20.98;;;;;;;17.36;65.98;100752.53;4428544;32;20086;-72
2021/06/03 04:14:05;;;;;;;37.35;20.33;;;;;;;17.29;65.93;100754.97;4429945;32;20067;-72
2021/06/03 04:16:31;;;;;;;50.85;21.60;;;;;;;17.37;65.85;100756.19;4427762;32;20867;-72
2021/06/03 04:18:56;;;;;;;47.13;22.17;;;;;;;17.28;65.81;100748.47;4427114;32;20080;-72
2021/06/03 04:21:22;;;;;;;42.17;21.45;;;;;;;17.15;66.21;100759.31;4428232;32;20435;-72
2021/06/03 04:23:48;;;;;;;46.83;21.87;;;;;;;17.16;66.10;100760.91;4426146;32;20051;-72
2021/06/03 04:26:15;;;;;;;45.05;21.50;;;;;;;17.21;66.53;100760.22;4429168;32;20108;-72
2021/06/03 04:28:41;;;;;;;42.30;21.37;;;;;;;17.25;66.52;100755.13;4429406;32;20096;-72
2021/06/03 04:31:08;;;;;;;49.55;22.23;;;;;;;17.33;66.38;100764.88;4426765;32;20495;-72
2021/06/03 04:33:34;;;;;;;49.83;21.65;;;;;;;17.25;66.48;100762.87;4429070;32;20102;-72
2021/06/03 04:35:59;;;;;;;42.72;21.77;;;;;;;17.36;65.75;100768.81;4428350;32;20049;-72
2021/06/03 04:38:25;;;;;;;45.25;21.60;;;;;;;17.24;65.92;100747.88;4428856;32;20049;-72
2021/06/03 04:40:51;;;;;;;45.65;21.90;;;;;;;17.37;66.16;100747.62;4426842;32;20085;-72
2021/06/03 04:43:17;;;;;;;44.33;21.65;;;;;;;17.37;65.66;100754.09;4429296;32;20449;-72
2021/06/03 04:45:43;;;;;;;46.03;22.65;;;;;;;17.52;64.97;100768.44;4426264;32;20042;-72
2021/06/03 04:48:09;;;;;;;48.20;23.92;;;;;;;17.48;65.21;100768.59;4427405;32;20079;-72
2021/06/03 04:50:37;;;;;;;45.22;22.75;;;;;;;17.49;65.06;100766.56;4428458;32;20092;-72
2021/06/03 04:53:03;;;;;;;54.45;24.52;;;;;;;17.43;65.45;100774.19;4426291;32;20046;-72
2021/06/03 04:55:30;;;;;;;54.65;26.45;;;;;;;17.34;65.76;100777.81;4421363;32;20050;-72
2021/06/03 04:57:56;;;;;;;58.83;26.83;;;;;;;17.33;65.93;100784.78;4424597;32;20067;-72
2021/06/03 05:00:26;;;;;;;55.83;27.15;;;;;;;17.31;65.46;100793.00;4427777;32;20128;-72
2021/06/03 05:02:52;;;;;;;54.72;28.12;;;;;;;17.29;65.53;100797.62;4427900;32;20069;-72
2021/06/03 05:05:18;;;;;;;62.03;28.80;;;;;;;17.36;65.23;100803.75;4426882;32;20468;-72
2021/06/03 05:07:46;;;;;;;54.88;25.85;;;;;;;17.11;66.24;100797.72;4427787;32;20037;-73
2021/06/03 05:10:13;;;;;;;50.95;25.42;;;;;;;17.30;65.96;100794.28;4428196;32;20094;-72
2021/06/03 05:12:39;;;;;;;50.83;26.50;;;;;;;17.47;65.45;100797.53;4415326;32;20129;-72
2021/06/03 05:15:07;;;;;;;59.42;27.35;;;;;;;17.55;64.96;100790.22;4413080;32;20083;-72
2021/06/03 05:17:35;;;;;;;57.13;27.17;;;;;;;17.66;64.80;100796.94;4424967;32;20060;-73
2021/06/03 05:20:01;;;;;;;65.12;27.00;;;;;;;17.59;64.48;100787.97;4428839;32;20068;-72
2021/06/03 05:22:27;;;;;;;61.20;26.60;;;;;;;17.71;64.46;100796.22;4427003;32;20041;-72
2021/06/03 05:24:53;;;;;;;57.22;26.50;;;;;;;17.76;63.99;100794.78;4428041;32;20057;-72
2021/06/03 05:27:19;;;;;;;65.70;28.48;;;;;;;17.70;63.90;100791.81;4426482;32;20113;-72
2021/06/03 05:29:44;;;;;;;65.75;28.67;;;;;;;17.67;64.02;100789.94;4427496;32;20436;-73
2021/06/03 05:32:10;;;;;;;67.18;29.60;;;;;;;17.76;64.22;100800.47;4425590;32;20088;-72
2021/06/03 05:34:36;;;;;;;60.38;30.52;;;;;;;17.89;63.52;100803.88;4426574;32;20065;-73
2021/06/03 05:37:03;;;;;;;72.07;31.90;;;;;;;17.89;63.09;100793.25;4426559;32;20579;-73
2021/06/03 05:39:29;;;;;;;59.97;28.80;;;;;;;17.93;63.60;100804.44;4427303;32;20041;-73
2021/06/03 05:41:54;;;;;;;63.85;28.27;;;;;;;18.07;63.06;100805.75;4426073;32;20041;-73
2021/06/03 05:44:20;;;;;;;64.03;28.58;;;;;;;18.18;62.47;100806.75;4427144;32;20559;-73
2021/06/03 05:46:46;;;;;;;67.70;29.90;;;;;;;18.18;62.17;100815.31;4427438;32;20075;-73
2021/06/03 05:49:13;;;;;;;56.85;28.12;;;;;;;18.26;62.19;100822.19;4422347;32;20050;-73
2021/06/03 05:51:41;;;;;;;60.83;27.15;;;;;;;18.47;61.42;100820.28;4414482;32;20046;-73
2021/06/03 05:54:08;;;;;;;62.60;29.12;;;;;;;18.57;61.02;100822.53;4419652;32;20094;-73
2021/06/03 05:56:34;;;;;;;62.08;26.20;;;;;;;18.53;60.66;100819.06;4417299;32;20103;-73
2021/06/03 05:59:00;;;;;;;56.17;27.48;;;;;;;18.72;60.32;100822.53;4420843;32;20037;-73
2021/06/03 06:01:28;;;;;;;58.40;26.08;;;;;;;18.77;60.09;100821.81;4419152;32;20080;-73
2021/06/03 06:06:32;;;;;;;52.33;26.37;;;;;;;19.15;59.49;100835.94;4414992;32;669672;-72
2021/06/03 06:09:00;;;;;;;50.83;24.65;;;;;;;19.15;59.49;100835.94;4421411;32;20045;-72
2021/06/03 06:11:29;;;;;;;58.75;25.55;;;;;;;18.83;60.11;100842.66;4419665;32;20492;-72
2021/06/03 06:13:55;;;;;;;49.28;24.45;;;;;;;18.83;59.99;100837.75;4421875;32;20038;-72
2021/06/03 06:16:21;;;;;;;55.08;25.05;;;;;;;18.92;59.83;100849.03;4420902;32;20169;-73
2021/06/03 06:18:47;;;;;;;49.58;25.05;;;;;;;18.98;59.31;100846.28;4422911;32;20109;-72
2021/06/03 06:21:16;;;;;;;51.45;24.23;;;;;;;19.01;59.38;100839.59;4424942;32;20450;-72
2021/06/03 06:23:44;;;;;;;47.47;23.85;;;;;;;19.06;59.15;100845.41;4423923;32;20654;-72
2021/06/03 06:26:10;;;;;;;52.70;24.75;;;;;;;19.11;58.99;100849.59;4428154;32;20086;-72
2021/06/03 06:28:36;;;;;;;54.38;25.23;;;;;;;19.07;58.98;100846.97;4424405;32;20450;-72
2021/06/03 06:31:03;;;;;;;48.38;23.65;;;;;;;19.10;58.92;100848.81;4424565;32;20038;-72
2021/06/03 06:33:29;;;;;;;44.58;23.65;;;;;;;19.06;59.07;100850.31;4423578;32;20678;-72
2021/06/03 06:35:54;;;;;;;50.00;23.50;;;;;;;18.77;59.24;100853.97;4423065;32;20067;-72
2021/06/03 06:38:22;;;;;;;48.42;23.05;;;;;;;18.90;59.24;100856.53;4422993;32;20049;-72
2021/06/03 06:40:50;;;;;;;47.92;22.75;;;;;;;18.92;59.42;100859.66;4425841;32;20083;-72
2021/06/03 06:43:16;;;;;;;44.17;22.23;;;;;;;19.03;58.72;100859.84;4422846;32;20247;-72
2021/06/03 06:45:44;;;;;;;49.80;22.33;;;;;;;18.99;59.23;100862.91;4422914;32;20058;-72
2021/06/03 06:48:12;;;;;;;51.50;24.25;;;;;;;18.99;59.04;100862.12;4425957;32;20466;-72
2021/06/03 06:50:39;;;;;;;52.17;26.42;;;;;;;18.71;59.89;100861.63;4429199;32;20343;-72
2021/06/03 06:53:06;;;;;;;59.90;26.55;;;;;;;18.71;59.92;100860.84;4424266;32;20042;-72
2021/06/03 06:55:32;;;;;;;46.22;23.90;;;;;;;18.76;60.10;100857.31;4423681;32;20103;-71
2021/06/03 06:57:59;;;;;;;54.75;26.77;;;;;;;18.89;59.66;100858.59;4423731;32;20080;-72
2021/06/03 07:00:29;;;;;;;58.13;25.77;;;;;;;18.86;59.54;100864.47;4423966;32;20556;-72
2021/06/03 07:02:55;;;;;;;54.78;25.77;;;;;;;18.95;59.33;100867.22;4407347;32;20465;-72
2021/06/03 07:05:21;;;;;;;49.95;26.20;;;;;;;18.88;59.74;100861.94;4410779;32;20403;-71
2021/06/03 07:07:48;;;;;;;54.28;26.95;;;;;;;19.05;59.19;100858.06;4411019;32;20045;-71
2021/06/03 07:10:14;;;;;;;54.67;25.60;;;;;;;19.10;59.40;100856.59;4419148;32;20111;-72
2021/06/03 07:12:41;;;;;;;49.35;25.27;;;;;;;18.98;58.90;100857.69;4414089;32;20053;-72
2021/06/03 07:15:09;;;;;;;52.78;27.48;;;;;;;19.29;58.34;100857.94;4407492;32;20405;-72
2021/06/03 07:17:35;;;;;;;51.88;26.10;;;;;;;19.17;58.85;100864.72;4400048;32;20528;-72
2021/06/03 07:20:03;;;;;;;53.83;26.00;;;;;;;19.42;58.12;100867.75;4399312;32;20046;-72
2021/06/03 07:22:29;;;;;;;58.47;27.65;;;;;;;19.51;58.00;100869.69;4398366;32;20107;-72
2021/06/03 07:24:54;;;;;;;57.05;27.17;;;;;;;19.50;57.79;100870.97;4398089;32;20050;-71
2021/06/03 07:27:20;;;;;;;57.65;28.08;;;;;;;19.63;57.48;100877.13;4396660;32;20141;-71
2021/06/03 07:29:46;;;;;;;50.55;25.58;;;;;;;19.65;57.41;100881.09;4396226;32;20416;-71
2021/06/03 07:32:12;;;;;;;50.15;27.77;;;;;;;19.80;56.68;100881.03;4397668;32;20117;-71
2021/06/03 07:34:38;;;;;;;50.85;28.38;;;;;;;19.79;56.71;100882.31;4399620;32;20055;-71
2021/06/03 07:37:04;;;;;;;67.75;31.52;;;;;;;19.80;56.77;100884.63;4397199;32;20103;-71
2021/06/03 07:39:29;;;;;;;55.47;28.45;;;;;;;19.82;57.03;100889.84;4396756;32;20392;-71
2021/06/03 07:41:55;;;;;;;59.33;29.42;;;;;;;19.95;56.36;100878.88;4397352;32;20085;-71
2021/06/03 07:44:21;;;;;;;53.05;28.67;;;;;;;19.87;56.51;100886.28;4397551;32;20046;-70
2021/06/03 07:46:47;;;;;;;51.60;28.65;;;;;;;19.96;56.36;100888.22;4395806;32;20093;-71
2021/06/03 07:49:13;;;;;;;58.03;30.25;;;;;;;19.86;56.83;100898.22;4397711;32;20489;-71
2021/06/03 07:51:41;;;;;;;51.90;28.10;;;;;;;19.93;56.54;100890.00;4398613;32;20046;-71
2021/06/03 07:54:08;;;;;;;61.42;30.60;;;;;;;20.12;56.09;100899.09;4398188;32;20047;-71
2021/06/03 07:56:35;;;;;;;62.70;30.77;;;;;;;20.06;56.20;100904.72;4395136;32;20046;-71
2021/06/03 07:59:01;;;;;;;59.15;30.05;;;;;;;20.07;55.97;100897.75;4395996;32;20477;-71
2021/06/03 08:01:27;;;;;;;69.65;30.48;;;;;;;19.96;56.69;100903.28;4396800;32;20078;-71
2021/06/03 08:03:53;;;;;;;56.53;29.63;;;;;;;20.07;56.30;100896.94;4398395;32;20069;-71
2021/06/03 08:06:18;;;;;;;54.85;28.95;;;;;;;20.25;55.69;100900.31;4396070;32;20077;-71
2021/06/03 08:08:44;;;;;;;54.72;28.65;;;;;;;20.11;55.78;100897.50;4396665;32;20066;-71
2021/06/03 08:11:10;;;;;;;53.85;27.55;;;;;;;20.18;55.80;100897.87;4403592;32;20088;-71
2021/06/03 08:13:36;;;;;;;45.92;25.33;;;;;;;20.26;55.53;100896.19;4396384;32;20074;-71
2021/06/03 08:16:04;;;;;;;49.65;27.00;;;;;;;20.40;54.89;100898.16;4397360;32;20101;-71
2021/06/03 08:18:30;;;;;;;44.47;26.10;;;;;;;20.56;54.48;100896.78;4396673;32;20054;-71
2021/06/03 08:20:59;;;;;;;50.72;26.80;;;;;;;20.39;54.50;100896.59;4392549;32;20107;-71
2021/06/03 08:23:28;;;;;;;43.38;26.17;;;;;;;20.46;54.68;100901.84;4399000;32;20043;-71
2021/06/03 08:25:56;;;;;;;50.75;27.37;;;;;;;20.65;54.17;100903.09;4396069;32;20077;-71
2021/06/03 08:28:24;;;;;;;53.10;26.80;;;;;;;20.66;54.09;100904.69;4396401;32;20042;-71
2021/06/03 08:30:51;;;;;;;49.75;25.77;;;;;;;20.80;53.75;100900.91;4401521;32;20043;-71
2021/06/03 08:33:18;;;;;;;45.55;26.23;;;;;;;20.97;53.20;100896.16;4395437;32;20494;-71
2021/06/03 08:35:44;;;;;;;60.15;28.00;;;;;;;21.30;52.57;100904.25;4395911;32;20046;-71
2021/06/03 08:38:11;;;;;;;50.33;28.15;;;;;;;21.72;51.67;100909.22;4396892;32;20050;-71
2021/06/03 08:40:47;;;;;;;48.20;27.55;;;;;;;22.07;50.27;100899.03;4396419;32;20131;-71
2021/06/03 08:43:14;;;;;;;48.87;26.87;;;;;;;22.47;49.41;100907.25;4396451;32;20496;-71
2021/06/03 08:45:43;;;;;;;51.03;25.08;;;;;;;22.91;48.59;100904.50;4396310;32;20045;-71
2021/06/03 08:48:10;;;;;;;49.80;23.87;;;;;;;23.31;47.42;100908.97;4395086;32;20101;-71
2021/06/03 08:50:39;;;;;;;47.67;24.25;;;;;;;23.87;46.02;100901.06;4403789;32;20058;-71
2021/06/03 08:53:05;;;;;;;49.38;28.48;;;;;;;24.37;44.93;100905.31;4398283;32;20050;-72
2021/06/03 08:58:20;;;;;;;48.03;23.67;;;;;;;24.96;42.92;100919.91;4395535;32;20077;-71
2021/06/03 09:00:46;;;;;;;37.88;21.40;;;;;;;24.93;42.88;100918.09;4397061;32;20068;-71
2021/06/03 09:03:13;;;;;;;44.60;21.60;;;;;;;25.08;42.30;100911.97;4397816;32;20112;-71
2021/06/03 09:05:40;;;;;;;45.55;21.92;;;;;;;25.14;42.46;100904.84;4394021;32;20496;-71
2021/06/03 09:11:04;;;;;;;43.30;20.58;;;;;;;26.17;41.01;100928.78;4444742;31;808239;-71
2021/06/03 09:13:34;;;;;;;46.42;22.48;;;;;;;26.17;41.01;100928.78;4453504;32;20476;-70
2021/06/03 09:16:13;;;;;;;43.42;22.17;;;;;;;26.06;40.69;100923.12;4455805;32;20550;-70
2021/06/03 09:18:42;;;;;;;46.90;22.00;;;;;;;25.95;40.19;100914.56;4453012;32;20071;-70
2021/06/03 09:23:55;;;;;;;40.33;22.40;;;;;;;26.15;40.06;100928.53;4414018;31;1369565;-72
2021/06/03 09:26:23;;;;;;;42.62;21.83;;;;;;;26.15;40.06;100928.53;4442985;32;20048;-71
2021/06/03 09:28:51;;;;;;;43.38;22.40;;;;;;;25.84;40.65;100923.34;4437594;32;20049;-73
2021/06/03 09:36:47;;;;;;;44.70;22.77;;;;;;;26.28;40.26;100922.84;4447574;31;677194;-71
2021/06/03 09:49:59;;;;;;;38.47;21.48;;;;;;;27.82;37.45;100923.34;4438634;31;664377;-72
2021/06/03 09:52:28;;;;;;;36.75;20.35;;;;;;;27.82;37.45;100923.34;4451553;32;20048;-72
2021/06/03 09:54:57;;;;;;;35.78;20.48;;;;;;;28.17;36.65;100927.94;4454610;32;20807;-72
2021/06/03 09:57:33;;;;;;;43.78;22.25;;;;;;;27.60;36.99;100920.88;4455610;32;20460;-72
2021/06/03 10:02:36;;;;;;;45.05;23.27;;;;;;;27.96;37.31;100932.84;4435700;31;673218;-72
2021/06/03 10:05:12;;;;;;;41.97;23.05;;;;;;;27.96;37.31;100932.84;4447542;32;20045;-72
2021/06/03 10:07:38;;;;;;;36.95;21.23;;;;;;;27.21;38.27;100930.19;4442295;32;20134;-73
2021/06/03 10:12:43;;;;;;;38.45;21.10;;;;;;;28.60;36.21;100928.37;4412372;31;1366736;-72
2021/06/03 10:17:54;;;;;;;41.97;24.20;;;;;;;28.54;36.29;100945.09;4434273;31;699128;-73
2021/06/03 10:20:45;;;;;;;44.50;23.27;;;;;;;28.54;36.29;100945.09;4444749;32;20699;-73
2021/06/03 10:23:15;;;;;;;47.75;24.75;;;;;;;28.30;36.38;100949.00;4447222;32;20162;-73
2021/06/03 10:25:42;;;;;;;44.80;24.33;;;;;;;28.07;36.80;100947.88;4445935;32;20120;-73
2021/06/03 10:30:49;;;;;;;48.20;24.50;;;;;;;28.91;35.64;100939.78;4444770;31;665695;-73
2021/06/03 10:33:19;;;;;;;43.42;24.40;;;;;;;28.91;35.64;100939.78;4454715;32;20100;-73
2021/06/03 10:35:47;;;;;;;43.20;24.27;;;;;;;28.89;35.52;100945.34;4453015;32;20114;-73
2021/06/03 10:38:13;;;;;;;49.30;24.42;;;;;;;28.96;35.14;100938.09;4454446;32;20052;-72
2021/06/03 10:40:44;;;;;;;41.10;24.70;;;;;;;28.78;35.86;100936.13;4453351;32;20062;-71
2021/06/03 10:43:10;;;;;;;50.22;26.90;;;;;;;29.09;35.23;100938.06;4453594;32;20045;-71
2021/06/03 10:45:38;;;;;;;46.70;25.90;;;;;;;29.43;34.57;100938.78;4454470;32;20045;-73
2021/06/03 10:48:06;;;;;;;51.50;24.45;;;;;;;29.06;35.25;100944.19;4439495;32;20098;-73
2021/06/03 10:50:37;;;;;;;44.05;24.73;;;;;;;29.31;34.85;100948.31;4455465;32;20043;-72
2021/06/03 10:53:08;;;;;;;48.83;24.83;;;;;;;29.44;34.60;100939.56;4454923;32;20029;-73
2021/06/03 10:55:37;;;;;;;49.03;25.50;;;;;;;29.15;35.16;100943.72;4446144;32;20021;-72
2021/06/03 10:58:05;;;;;;;54.10;27.17;;;;;;;28.88;35.75;100951.69;4452499;32;20082;-73
2021/06/03 11:00:55;;;;;;;54.55;26.33;;;;;;;28.67;36.27;100945.84;4449709;32;20096;-71
2021/06/03 11:03:26;;;;;;;56.60;27.23;;;;;;;28.26;36.92;100947.78;4437008;32;20091;-70
2021/06/03 11:06:02;;;;;;;43.60;24.65;;;;;;;27.61;38.40;100950.56;4433648;32;20049;-72
2021/06/03 11:27:08;;;;;;;42.50;22.87;;;;;;;28.30;37.71;100943.19;4450639;31;659475;-72
2021/06/03 11:29:40;;;;;;;41.05;21.27;;;;;;;28.13;37.75;100945.63;4469875;32;20071;-70
2021/06/03 11:50:37;;;;;;;51.33;26.23;;;;;;;31.30;33.38;100949.22;4448139;31;677533;-70
2021/06/03 11:53:07;;;;;;;49.10;25.10;;;;;;;31.30;33.38;100949.22;4444840;32;20080;-70
2021/06/03 12:11:21;;;;;;;48.08;26.00;;;;;;;33.23;30.39;100934.09;4443996;31;677961;-72
2021/06/03 12:14:00;;;;;;;45.22;25.50;;;;;;;33.23;30.39;100934.09;4453130;32;20049;-71
2021/06/03 12:16:44;;;;;;;39.92;24.05;;;;;;;32.65;31.08;100941.16;4448933;32;20057;-72
2021/06/03 12:19:13;;;;;;;47.83;25.50;;;;;;;32.96;30.66;100938.91;4447332;32;20103;-72
2021/06/03 12:21:41;;;;;;;45.35;24.25;;;;;;;33.32;30.18;100926.81;4449805;32;20144;-72
2021/06/03 12:24:08;;;;;;;43.08;23.55;;;;;;;33.78;29.56;100930.97;4453444;32;20579;-72
2021/06/03 12:26:37;;;;;;;38.17;22.27;;;;;;;33.99;29.15;100926.28;4453621;32;20097;-72
2021/06/03 12:29:04;;;;;;;39.15;24.27;;;;;;;34.55;28.45;100929.59;4451573;32;20042;-72
2021/06/03 12:31:31;;;;;;;46.42;24.67;;;;;;;34.72;28.05;100927.44;4448713;32;20057;-72
2021/06/03 12:33:57;;;;;;;39.90;23.20;;;;;;;34.66;28.27;100924.00;4448783;32;20339;-72
2021/06/03 12:36:26;;;;;;;41.60;23.15;;;;;;;34.77;28.28;100922.69;4448929;32;20053;-71
2021/06/03 12:38:56;;;;;;;47.42;22.65;;;;;;;34.70;28.40;100926.50;4449262;32;20478;-72
2021/06/03 12:44:02;;;;;;;37.72;20.20;;;;;;;34.75;28.49;100926.22;4413319;31;1378244;-71
2021/06/03 12:46:51;;;;;;;34.67;19.80;;;;;;;34.87;28.41;100915.56;4443117;32;20052;-71
2021/06/03 12:54:34;;;;;;;39.20;21.52;;;;;;;37.10;25.94;100916.41;4446146;31;677483;-72
2021/06/03 12:57:03;;;;;;;38.47;21.02;;;;;;;37.10;25.94;100916.41;4453204;32;20063;-73